createdAt,value
2023-08-07T00:00:26.460Z,81.39
2023-08-07T00:01:17.402Z,81.81
2023-08-07T00:02:08.298Z,82.58
2023-08-07T00:02:59.160Z,83.12
2023-08-07T00:03:50.087Z,81.88
2023-08-07T00:04:43.158Z,81.26
2023-08-07T00:05:34.275Z,81.86
2023-08-07T00:06:27.168Z,81.88
2023-08-07T00:07:19.280Z,82.95
2023-08-07T00:08:10.114Z,82.93
2023-08-07T00:09:00.831Z,82.11
2023-08-07T00:09:51.649Z,82.17
2023-08-07T00:10:42.489Z,81.56
2023-08-07T00:11:33.610Z,81.94
2023-08-07T00:12:24.225Z,81.57
2023-08-07T00:13:15.268Z,81.17
2023-08-07T00:14:06.019Z,81.95
2023-08-07T00:14:56.538Z,81.69
2023-08-07T00:15:47.435Z,81.67
2023-08-07T00:16:38.171Z,81.76
2023-08-07T00:17:29.183Z,81.88
2023-08-07T00:18:19.811Z,82.31
2023-08-07T00:19:10.530Z,82.57
2023-08-07T00:20:01.438Z,82.70
2023-08-07T00:20:52.322Z,82.94
2023-08-07T00:21:43.298Z,83.15
2023-08-07T00:22:34.040Z,82.65
2023-08-07T00:23:25.131Z,82.11
2023-08-07T00:24:15.636Z,82.01
2023-08-07T00:25:06.617Z,83.04
2023-08-07T00:25:57.376Z,83.30
2023-08-07T00:26:48.203Z,83.03
2023-08-07T00:27:38.966Z,83.15
2023-08-07T00:28:30.753Z,83.55
2023-08-07T00:29:21.440Z,83.55
2023-08-07T00:30:12.887Z,82.98
2023-08-07T00:31:03.981Z,83.20
2023-08-07T00:31:54.780Z,82.87
2023-08-07T00:32:45.818Z,82.79
2023-08-07T00:33:36.606Z,82.97
2023-08-07T00:34:27.500Z,82.79
2023-08-07T00:35:18.830Z,82.96
2023-08-07T00:36:10.372Z,81.87
2023-08-07T00:37:01.216Z,82.00
2023-08-07T00:37:52.630Z,82.15
2023-08-07T00:38:43.488Z,82.13
2023-08-07T00:39:34.315Z,81.60
2023-08-07T00:40:25.282Z,81.17
2023-08-07T00:41:21.054Z,81.11
2023-08-07T00:42:11.948Z,80.77
2023-08-07T00:43:05.096Z,81.08
2023-08-07T00:43:55.669Z,80.17
2023-08-07T00:44:46.390Z,80.80
2023-08-07T00:45:46.097Z,80.93
2023-08-07T00:46:37.896Z,81.85
2023-08-07T00:47:29.914Z,82.05
2023-08-07T00:48:21.097Z,82.27
2023-08-07T00:49:14.122Z,82.15
2023-08-07T00:50:05.832Z,80.96
2023-08-07T00:50:56.665Z,81.87
2023-08-07T00:51:48.740Z,81.71
2023-08-07T00:52:39.778Z,81.72
2023-08-07T00:53:30.279Z,82.62
2023-08-07T00:54:21.943Z,82.56
2023-08-07T00:55:12.731Z,80.80
2023-08-07T00:56:03.705Z,81.74
2023-08-07T00:56:55.019Z,82.34
2023-08-07T00:57:46.200Z,82.33
2023-08-07T00:58:37.776Z,83.04
2023-08-07T00:59:28.563Z,82.73
2023-08-07T01:00:20.004Z,82.71
2023-08-07T01:01:11.213Z,82.81
2023-08-07T01:02:02.461Z,81.53
2023-08-07T01:02:55.546Z,81.86
2023-08-07T01:03:46.438Z,82.01
2023-08-07T01:04:37.948Z,82.14
2023-08-07T01:05:28.456Z,82.31
2023-08-07T01:06:21.705Z,82.67
2023-08-07T01:07:12.732Z,83.22
2023-08-07T01:08:05.100Z,82.57
2023-08-07T01:08:56.291Z,82.78
2023-08-07T01:09:47.196Z,83.03
2023-08-07T01:10:52.753Z,81.13
2023-08-07T01:11:53.867Z,80.69
2023-08-07T01:12:53.645Z,81.39
2023-08-07T01:13:50.411Z,81.12
2023-08-07T01:14:53.696Z,81.58
2023-08-07T01:15:45.537Z,81.59
2023-08-07T01:16:44.953Z,82.18
2023-08-07T01:17:36.278Z,81.91
2023-08-07T01:18:28.303Z,82.06
2023-08-07T01:19:28.042Z,81.64
2023-08-07T01:20:18.928Z,81.31
2023-08-07T01:21:20.577Z,81.70
2023-08-07T01:22:18.705Z,81.97
2023-08-07T01:23:09.717Z,81.43
2023-08-07T01:24:00.573Z,82.11
2023-08-07T01:24:52.005Z,81.89
2023-08-07T01:25:42.657Z,82.60
2023-08-07T01:26:36.522Z,83.12
2023-08-07T01:27:32.601Z,82.82
2023-08-07T01:28:33.716Z,81.69
2023-08-07T01:29:36.439Z,81.97
2023-08-07T01:30:42.466Z,82.60
2023-08-07T01:31:37.325Z,82.08
2023-08-07T01:32:48.784Z,82.29
2023-08-07T01:33:56.210Z,81.59
2023-08-07T01:34:49.236Z,82.66
2023-08-07T01:35:50.643Z,82.82
2023-08-07T01:36:42.232Z,82.81
2023-08-07T01:37:40.714Z,81.92
2023-08-07T01:38:32.692Z,82.16
2023-08-07T01:39:24.895Z,82.34
2023-08-07T01:40:17.895Z,82.91
2023-08-07T01:41:08.871Z,83.71
2023-08-07T01:42:01.836Z,84.17
2023-08-07T01:42:52.716Z,83.91
2023-08-07T01:43:43.847Z,83.27
2023-08-07T01:44:34.415Z,83.33
2023-08-07T01:45:26.751Z,82.60
2023-08-07T01:46:19.610Z,82.82
2023-08-07T01:47:10.550Z,81.94
2023-08-07T01:48:02.082Z,81.88
2023-08-07T01:48:52.827Z,82.25
2023-08-07T01:49:43.805Z,82.57
2023-08-07T01:50:35.524Z,83.05
2023-08-07T01:51:26.406Z,82.97
2023-08-07T01:52:16.947Z,83.55
2023-08-07T01:53:07.701Z,82.79
2023-08-07T01:53:58.619Z,81.13
2023-08-07T01:54:49.449Z,81.14
2023-08-07T01:55:40.225Z,81.39
2023-08-07T01:56:31.070Z,81.64
2023-08-07T01:57:22.053Z,82.10
2023-08-07T01:58:13.514Z,82.15
2023-08-07T01:59:04.434Z,82.45
2023-08-07T01:59:55.349Z,82.16
2023-08-07T02:00:47.379Z,82.31
2023-08-07T02:01:38.779Z,82.43
2023-08-07T02:02:29.531Z,81.78
2023-08-07T02:03:20.960Z,81.85
2023-08-07T02:04:11.729Z,82.21
2023-08-07T02:05:02.777Z,82.15
2023-08-07T02:05:53.401Z,82.26
2023-08-07T02:06:44.742Z,82.31
2023-08-07T02:07:37.077Z,82.55
2023-08-07T02:08:27.772Z,82.58
2023-08-07T02:09:18.634Z,81.67
2023-08-07T02:10:10.100Z,81.10
2023-08-07T02:11:02.746Z,81.58
2023-08-07T02:11:53.735Z,81.61
2023-08-07T02:12:45.297Z,81.01
2023-08-07T02:13:36.464Z,81.03
2023-08-07T02:14:27.310Z,81.05
2023-08-07T02:15:18.151Z,81.05
2023-08-07T02:16:09.401Z,80.85
2023-08-07T02:17:00.209Z,80.18
2023-08-07T02:17:51.051Z,80.55
2023-08-07T02:18:41.844Z,80.63
2023-08-07T02:19:33.185Z,80.62
2023-08-07T02:20:24.043Z,80.38
2023-08-07T02:21:14.828Z,80.27
2023-08-07T02:22:06.560Z,80.87
2023-08-07T02:22:57.682Z,81.04
2023-08-07T02:23:48.519Z,81.60
2023-08-07T02:24:39.366Z,82.07
2023-08-07T02:25:31.346Z,81.65
2023-08-07T02:26:22.150Z,80.86
2023-08-07T02:27:12.977Z,81.19
2023-08-07T02:28:03.867Z,81.22
2023-08-07T02:28:54.466Z,80.37
2023-08-07T02:29:45.333Z,79.82
2023-08-07T02:30:36.356Z,80.72
2023-08-07T02:31:27.311Z,82.08
2023-08-07T02:32:19.047Z,82.11
2023-08-07T02:33:10.224Z,81.25
2023-08-07T02:34:00.936Z,81.21
2023-08-07T02:34:51.932Z,81.35
2023-08-07T02:35:42.637Z,81.41
2023-08-07T02:36:33.535Z,81.27
2023-08-07T02:37:25.319Z,80.62
2023-08-07T02:38:15.985Z,80.78
2023-08-07T02:39:07.686Z,80.76
2023-08-07T02:39:58.479Z,81.32
2023-08-07T02:40:49.407Z,81.71
2023-08-07T02:41:40.259Z,81.17
2023-08-07T02:42:31.076Z,80.11
2023-08-07T02:43:21.927Z,79.99
2023-08-07T02:44:12.666Z,80.74
2023-08-07T02:45:04.037Z,80.02
2023-08-07T02:45:54.910Z,79.73
2023-08-07T02:46:45.729Z,79.99
2023-08-07T02:47:36.824Z,79.74
2023-08-07T02:48:27.648Z,80.43
2023-08-07T02:49:18.447Z,79.94
2023-08-07T02:50:09.364Z,79.79
2023-08-07T02:51:00.103Z,79.19
2023-08-07T02:51:50.929Z,79.63
2023-08-07T02:52:43.143Z,80.13
2023-08-07T02:53:35.245Z,80.06
2023-08-07T02:54:26.075Z,79.66
2023-08-07T02:55:17.040Z,79.19
2023-08-07T02:56:07.889Z,79.26
2023-08-07T02:56:58.631Z,78.71
2023-08-07T02:57:49.544Z,79.60
2023-08-07T02:58:40.373Z,78.44
2023-08-07T02:59:33.342Z,78.89
2023-08-07T03:00:24.697Z,80.11
2023-08-07T03:01:15.496Z,79.89
2023-08-07T03:02:06.539Z,80.30
2023-08-07T03:02:57.448Z,80.82
2023-08-07T03:03:48.286Z,81.34
2023-08-07T03:04:39.220Z,81.43
2023-08-07T03:05:30.275Z,81.54
2023-08-07T03:06:21.304Z,81.30
2023-08-07T03:07:12.245Z,81.83
2023-08-07T03:08:03.226Z,80.35
2023-08-07T03:08:54.262Z,80.12
2023-08-07T03:09:50.970Z,80.50
2023-08-07T03:10:41.571Z,80.41
2023-08-07T03:11:32.293Z,81.25
2023-08-07T03:12:23.187Z,81.47
2023-08-07T03:13:13.982Z,81.75
2023-08-07T03:14:04.625Z,81.45
2023-08-07T03:14:55.314Z,81.91
2023-08-07T03:15:46.334Z,81.68
2023-08-07T03:16:37.159Z,82.16
2023-08-07T03:17:28.036Z,81.38
2023-08-07T03:18:18.835Z,82.07
2023-08-07T03:19:09.661Z,81.88
2023-08-07T03:20:00.687Z,82.10
2023-08-07T03:20:51.471Z,81.96
2023-08-07T03:21:45.803Z,81.97
2023-08-07T03:22:36.524Z,82.11
2023-08-07T03:23:28.390Z,82.33
2023-08-07T03:24:20.787Z,81.75
2023-08-07T03:25:11.914Z,82.39
2023-08-07T03:26:18.159Z,82.50
2023-08-07T03:27:11.418Z,82.22
2023-08-07T03:28:02.271Z,81.34
2023-08-07T03:28:53.133Z,81.09
2023-08-07T03:29:46.257Z,80.71
2023-08-07T03:30:39.159Z,80.94
2023-08-07T03:31:30.100Z,80.70
2023-08-07T03:32:21.385Z,80.90
2023-08-07T03:33:12.974Z,80.76
2023-08-07T03:34:04.607Z,80.37
2023-08-07T03:34:55.319Z,80.44
2023-08-07T03:35:46.881Z,80.63
2023-08-07T03:36:37.789Z,80.86
2023-08-07T03:37:28.514Z,79.75
2023-08-07T03:38:19.532Z,79.76
2023-08-07T03:39:15.683Z,80.77
2023-08-07T03:40:07.000Z,80.73
2023-08-07T03:40:57.731Z,80.67
2023-08-07T03:41:49.037Z,80.72
2023-08-07T03:42:41.793Z,81.28
2023-08-07T03:43:34.034Z,80.97
2023-08-07T03:44:24.784Z,81.07
2023-08-07T03:45:15.782Z,80.76
2023-08-07T03:46:06.350Z,79.75
2023-08-07T03:46:58.850Z,78.74
2023-08-07T03:47:50.069Z,79.24
2023-08-07T03:48:40.815Z,79.45
2023-08-07T03:49:32.698Z,79.53
2023-08-07T03:50:23.522Z,79.77
2023-08-07T03:51:15.894Z,79.85
2023-08-07T03:52:11.260Z,80.19
2023-08-07T03:53:02.579Z,81.40
2023-08-07T03:53:53.480Z,81.15
2023-08-07T03:54:45.725Z,81.03
2023-08-07T03:55:36.607Z,80.88
2023-08-07T03:56:27.246Z,79.73
2023-08-07T03:57:19.281Z,80.10
2023-08-07T03:58:10.029Z,80.12
2023-08-07T03:59:00.794Z,80.38
2023-08-07T03:59:51.619Z,81.05
2023-08-07T04:00:42.279Z,81.60
2023-08-07T04:01:33.045Z,82.28
2023-08-07T04:02:24.133Z,82.03
2023-08-07T04:03:15.315Z,81.38
2023-08-07T04:04:06.417Z,81.78
2023-08-07T04:04:57.593Z,82.47
2023-08-07T04:05:48.551Z,81.72
2023-08-07T04:06:39.132Z,81.78
2023-08-07T04:07:29.555Z,81.35
2023-08-07T04:08:22.514Z,81.16
2023-08-07T04:09:13.149Z,81.46
2023-08-07T04:10:04.093Z,81.29
2023-08-07T04:11:05.839Z,80.92
2023-08-07T04:11:58.938Z,80.86
2023-08-07T04:12:50.865Z,80.55
2023-08-07T04:13:41.698Z,80.85
2023-08-07T04:14:32.860Z,80.37
2023-08-07T04:15:23.901Z,80.51
2023-08-07T04:16:14.935Z,80.91
2023-08-07T04:17:05.737Z,80.31
2023-08-07T04:17:56.360Z,79.30
2023-08-07T04:18:47.558Z,78.76
2023-08-07T04:19:38.352Z,79.66
2023-08-07T04:20:29.119Z,78.93
2023-08-07T04:21:19.961Z,79.78
2023-08-07T04:22:10.826Z,80.07
2023-08-07T04:23:01.862Z,79.85
2023-08-07T04:23:53.032Z,79.68
2023-08-07T04:24:44.004Z,79.35
2023-08-07T04:25:34.722Z,79.17
2023-08-07T04:26:25.835Z,78.83
2023-08-07T04:27:16.442Z,78.89
2023-08-07T04:28:07.220Z,78.93
2023-08-07T04:28:58.062Z,79.69
2023-08-07T04:29:49.956Z,79.00
2023-08-07T04:30:42.182Z,79.09
2023-08-07T04:31:33.132Z,79.26
2023-08-07T04:32:25.776Z,79.11
2023-08-07T04:33:17.518Z,79.25
2023-08-07T04:34:08.343Z,78.35
2023-08-07T04:35:00.171Z,78.25
2023-08-07T04:35:51.054Z,78.14
2023-08-07T04:36:41.401Z,79.22
2023-08-07T04:37:32.479Z,79.28
2023-08-07T04:38:23.475Z,80.11
2023-08-07T04:39:14.451Z,79.68
2023-08-07T04:40:06.012Z,79.87
2023-08-07T04:40:56.908Z,80.32
2023-08-07T04:41:48.607Z,79.91
2023-08-07T04:42:39.191Z,80.76
2023-08-07T04:43:29.987Z,80.55
2023-08-07T04:44:20.766Z,78.53
2023-08-07T04:45:11.593Z,78.14
2023-08-07T04:46:02.349Z,78.43
2023-08-07T04:46:53.791Z,78.27
2023-08-07T04:47:44.821Z,78.80
2023-08-07T04:48:35.342Z,78.80
2023-08-07T04:49:26.042Z,79.28
2023-08-07T04:50:19.375Z,79.50
2023-08-07T04:51:10.453Z,79.34
2023-08-07T04:52:04.845Z,79.00
2023-08-07T04:53:03.600Z,78.96
2023-08-07T04:53:54.476Z,78.27
2023-08-07T04:54:45.326Z,79.19
2023-08-07T04:55:36.291Z,78.62
2023-08-07T04:56:27.192Z,78.45
2023-08-07T04:57:18.078Z,78.89
2023-08-07T04:58:08.914Z,78.74
2023-08-07T04:58:59.833Z,78.56
2023-08-07T04:59:50.584Z,78.92
2023-08-07T05:00:41.639Z,78.43
2023-08-07T05:01:32.481Z,77.49
2023-08-07T05:02:23.407Z,77.59
2023-08-07T05:03:14.449Z,78.00
2023-08-07T05:04:06.288Z,77.90
2023-08-07T05:04:57.210Z,78.17
2023-08-07T05:05:47.720Z,78.04
2023-08-07T05:06:38.464Z,78.78
2023-08-07T05:07:29.472Z,78.19
2023-08-07T05:08:20.272Z,78.18
2023-08-07T05:09:11.085Z,78.90
2023-08-07T05:10:05.416Z,78.92
2023-08-07T05:10:56.688Z,77.37
2023-08-07T05:11:47.486Z,77.07
2023-08-07T05:12:38.348Z,77.42
2023-08-07T05:13:29.272Z,77.57
2023-08-07T05:14:20.168Z,77.30
2023-08-07T05:15:11.046Z,77.46
2023-08-07T05:16:01.964Z,78.04
2023-08-07T05:16:52.812Z,78.06
2023-08-07T05:17:43.643Z,78.81
2023-08-07T05:18:34.663Z,78.39
2023-08-07T05:19:25.208Z,78.47
2023-08-07T05:20:16.065Z,78.66
2023-08-07T05:21:09.723Z,78.07
2023-08-07T05:22:00.525Z,77.39
2023-08-07T05:22:51.352Z,77.58
2023-08-07T05:23:42.462Z,77.75
2023-08-07T05:24:39.820Z,78.30
2023-08-07T05:25:31.319Z,78.74
2023-08-07T05:26:22.877Z,78.34
2023-08-07T05:27:13.458Z,78.33
2023-08-07T05:28:04.746Z,77.71
2023-08-07T05:28:57.288Z,77.39
2023-08-07T05:29:47.762Z,77.69
2023-08-07T05:30:38.781Z,77.84
2023-08-07T05:31:29.850Z,78.10
2023-08-07T05:32:20.786Z,77.50
2023-08-07T05:33:11.701Z,76.97
2023-08-07T05:34:02.612Z,76.95
2023-08-07T05:34:53.465Z,77.01
2023-08-07T05:35:44.200Z,77.61
2023-08-07T05:36:34.990Z,77.41
2023-08-07T05:37:26.002Z,77.29
2023-08-07T05:38:16.872Z,76.53
2023-08-07T05:39:07.692Z,76.94
2023-08-07T05:39:58.654Z,76.77
2023-08-07T05:40:49.630Z,76.42
2023-08-07T05:41:42.174Z,75.75
2023-08-07T05:42:33.059Z,75.90
2023-08-07T05:43:24.228Z,76.08
2023-08-07T05:44:15.347Z,75.73
2023-08-07T05:45:06.530Z,75.99
2023-08-07T05:45:57.388Z,75.45
2023-08-07T05:46:48.290Z,75.48
2023-08-07T05:47:39.231Z,75.38
2023-08-07T05:48:29.974Z,75.33
2023-08-07T05:49:23.894Z,75.56
2023-08-07T05:50:16.336Z,75.22
2023-08-07T05:51:08.238Z,75.24
2023-08-07T05:51:59.240Z,75.38
2023-08-07T05:52:50.456Z,75.77
2023-08-07T05:53:41.272Z,76.21
2023-08-07T05:54:31.992Z,76.04
2023-08-07T05:55:22.775Z,76.85
2023-08-07T05:56:13.753Z,76.57
2023-08-07T05:57:04.982Z,76.34
2023-08-07T05:57:55.765Z,76.53
2023-08-07T05:58:46.759Z,75.96
2023-08-07T05:59:37.794Z,74.88
2023-08-07T06:00:29.602Z,74.29
2023-08-07T06:01:20.870Z,73.91
2023-08-07T06:02:14.735Z,74.19
2023-08-07T06:03:05.781Z,74.11
2023-08-07T06:03:56.584Z,74.14
2023-08-07T06:04:47.649Z,74.58
2023-08-07T06:05:38.198Z,74.49
2023-08-07T06:06:29.272Z,73.82
2023-08-07T06:07:20.639Z,73.71
2023-08-07T06:08:11.359Z,73.31
2023-08-07T06:09:03.688Z,73.31
2023-08-07T06:09:54.454Z,73.99
2023-08-07T06:10:45.361Z,73.58
2023-08-07T06:11:36.306Z,72.97
2023-08-07T06:12:27.082Z,73.65
2023-08-07T06:13:30.469Z,73.97
2023-08-07T06:14:26.597Z,73.07
2023-08-07T06:15:17.458Z,73.33
2023-08-07T06:16:08.262Z,72.95
2023-08-07T06:16:59.293Z,72.93
2023-08-07T06:17:52.380Z,73.24
2023-08-07T06:18:43.081Z,73.06
2023-08-07T06:19:36.297Z,73.27
2023-08-07T06:20:27.578Z,72.53
2023-08-07T06:21:18.508Z,72.12
2023-08-07T06:22:09.355Z,72.32
2023-08-07T06:23:00.339Z,72.12
2023-08-07T06:23:50.911Z,71.66
2023-08-07T06:24:41.786Z,72.79
2023-08-07T06:25:32.535Z,71.91
2023-08-07T06:26:23.574Z,72.07
2023-08-07T06:27:14.441Z,72.27
2023-08-07T06:28:05.318Z,72.51
2023-08-07T06:28:56.197Z,71.96
2023-08-07T06:29:47.089Z,71.45
2023-08-07T06:30:37.933Z,72.20
2023-08-07T06:31:28.815Z,72.39
2023-08-07T06:32:19.589Z,72.94
2023-08-07T06:33:13.029Z,73.56
2023-08-07T06:34:04.794Z,72.88
2023-08-07T06:34:55.573Z,72.89
2023-08-07T06:35:46.609Z,74.13
2023-08-07T06:36:37.590Z,73.06
2023-08-07T06:37:28.257Z,73.66
2023-08-07T06:38:18.634Z,73.40
2023-08-07T06:39:09.463Z,72.13
2023-08-07T06:40:00.830Z,72.07
2023-08-07T06:40:51.662Z,72.21
2023-08-07T06:41:42.893Z,72.19
2023-08-07T06:42:34.587Z,71.94
2023-08-07T06:43:25.382Z,71.41
2023-08-07T06:44:16.176Z,71.35
2023-08-07T06:45:07.539Z,70.77
2023-08-07T06:45:58.753Z,70.48
2023-08-07T06:46:49.982Z,71.01
2023-08-07T06:47:40.436Z,70.28
2023-08-07T06:48:31.361Z,69.42
2023-08-07T06:49:22.568Z,69.47
2023-08-07T06:50:14.470Z,70.02
2023-08-07T06:51:05.143Z,69.53
2023-08-07T06:51:56.201Z,69.50
2023-08-07T06:52:47.339Z,69.55
2023-08-07T06:53:38.059Z,69.55
2023-08-07T06:54:29.094Z,69.60
2023-08-07T06:55:20.096Z,69.64
2023-08-07T06:56:11.017Z,69.48
2023-08-07T06:57:01.766Z,69.64
2023-08-07T06:57:52.553Z,69.31
2023-08-07T06:58:43.389Z,70.11
2023-08-07T06:59:36.392Z,70.50
2023-08-07T07:00:27.043Z,70.23
2023-08-07T07:01:17.894Z,70.38
2023-08-07T07:02:08.640Z,69.70
2023-08-07T07:02:59.428Z,70.00
2023-08-07T07:03:53.779Z,69.74
2023-08-07T07:04:44.633Z,69.60
2023-08-07T07:05:35.656Z,69.38
2023-08-07T07:06:29.492Z,69.17
2023-08-07T07:07:20.520Z,68.12
2023-08-07T07:08:13.674Z,68.18
2023-08-07T07:09:04.465Z,67.23
2023-08-07T07:09:55.526Z,66.47
2023-08-07T07:10:46.357Z,67.37
2023-08-07T07:11:37.218Z,67.05
2023-08-07T07:12:28.843Z,66.83
2023-08-07T07:13:19.649Z,66.64
2023-08-07T07:14:11.376Z,66.15
2023-08-07T07:15:02.259Z,65.96
2023-08-07T07:15:56.428Z,67.43
2023-08-07T07:16:47.354Z,67.17
2023-08-07T07:17:38.227Z,68.51
2023-08-07T07:18:29.193Z,68.95
2023-08-07T07:19:20.083Z,67.77
2023-08-07T07:20:12.380Z,67.30
2023-08-07T07:21:03.199Z,67.24
2023-08-07T07:21:54.810Z,67.38
2023-08-07T07:22:45.742Z,68.22
2023-08-07T07:23:36.607Z,68.17
2023-08-07T07:24:27.638Z,67.34
2023-08-07T07:25:18.396Z,66.56
2023-08-07T07:26:09.177Z,66.17
2023-08-07T07:26:59.952Z,65.58
2023-08-07T07:27:50.918Z,64.63
2023-08-07T07:28:41.868Z,64.24
2023-08-07T07:29:32.668Z,63.68
2023-08-07T07:30:23.446Z,64.04
2023-08-07T07:31:14.410Z,63.79
2023-08-07T07:32:05.650Z,63.65
2023-08-07T07:32:56.334Z,64.07
2023-08-07T07:33:48.131Z,64.71
2023-08-07T07:34:38.635Z,65.00
2023-08-07T07:35:29.613Z,66.16
2023-08-07T07:36:23.302Z,65.70
2023-08-07T07:37:15.413Z,65.85
2023-08-07T07:38:07.628Z,66.28
2023-08-07T07:38:58.187Z,65.51
2023-08-07T07:39:49.515Z,65.53
2023-08-07T07:40:40.268Z,65.61
2023-08-07T07:41:30.779Z,65.16
2023-08-07T07:42:21.705Z,65.85
2023-08-07T07:43:14.870Z,66.02
2023-08-07T07:44:05.970Z,65.52
2023-08-07T07:44:56.778Z,65.65
2023-08-07T07:45:47.832Z,65.37
2023-08-07T07:46:38.658Z,65.35
2023-08-07T07:47:29.494Z,65.32
2023-08-07T07:48:20.343Z,64.98
2023-08-07T07:49:11.348Z,64.29
2023-08-07T07:50:09.407Z,64.35
2023-08-07T07:51:01.607Z,64.40
2023-08-07T07:51:52.280Z,64.91
2023-08-07T07:52:42.762Z,66.06
2023-08-07T07:53:33.503Z,65.74
2023-08-07T07:54:24.265Z,65.05
2023-08-07T07:55:15.413Z,65.15
2023-08-07T07:56:06.691Z,65.00
2023-08-07T07:56:57.638Z,65.52
2023-08-07T07:57:48.653Z,65.13
2023-08-07T07:58:39.548Z,65.06
2023-08-07T07:59:30.252Z,65.47
2023-08-07T08:00:21.453Z,64.97
2023-08-07T08:01:12.796Z,64.65
2023-08-07T08:02:03.716Z,64.56
2023-08-07T08:02:55.089Z,64.40
2023-08-07T08:03:46.350Z,63.92
2023-08-07T08:04:37.196Z,64.08
2023-08-07T08:05:28.668Z,63.93
2023-08-07T08:06:19.465Z,63.85
2023-08-07T08:07:10.382Z,64.19
2023-08-07T08:08:02.453Z,64.32
2023-08-07T08:08:53.535Z,63.91
2023-08-07T08:09:44.481Z,63.61
2023-08-07T08:10:35.357Z,63.05
2023-08-07T08:11:26.323Z,62.40
2023-08-07T08:12:17.380Z,62.17
2023-08-07T08:13:12.303Z,61.98
2023-08-07T08:14:03.301Z,62.14
2023-08-07T08:14:56.232Z,62.57
2023-08-07T08:15:47.568Z,61.88
2023-08-07T08:16:38.455Z,61.33
2023-08-07T08:17:29.957Z,61.51
2023-08-07T08:18:20.906Z,61.14
2023-08-07T08:19:11.628Z,60.92
2023-08-07T08:20:02.361Z,60.90
2023-08-07T08:20:53.416Z,60.89
2023-08-07T08:21:44.601Z,59.81
2023-08-07T08:22:36.044Z,60.04
2023-08-07T08:23:26.749Z,59.68
2023-08-07T08:24:17.641Z,59.63
2023-08-07T08:25:09.013Z,60.05
2023-08-07T08:25:59.616Z,59.68
2023-08-07T08:26:50.146Z,59.96
2023-08-07T08:27:41.401Z,59.71
2023-08-07T08:28:32.151Z,59.02
2023-08-07T08:29:23.018Z,59.50
2023-08-07T08:30:14.002Z,58.94
2023-08-07T08:31:07.606Z,59.23
2023-08-07T08:31:58.837Z,58.99
2023-08-07T08:32:50.007Z,60.08
2023-08-07T08:33:41.247Z,59.87
2023-08-07T08:34:31.841Z,59.49
2023-08-07T08:35:22.813Z,60.20
2023-08-07T08:36:13.382Z,60.46
2023-08-07T08:37:07.021Z,59.97
2023-08-07T08:37:57.861Z,59.63
2023-08-07T08:38:49.635Z,60.38
2023-08-07T08:39:40.389Z,59.60
2023-08-07T08:40:38.878Z,59.05
2023-08-07T08:41:30.003Z,60.35
2023-08-07T08:42:21.468Z,59.38
2023-08-07T08:43:13.660Z,59.93
2023-08-07T08:44:07.182Z,59.30
2023-08-07T08:45:00.282Z,59.59
2023-08-07T08:45:51.886Z,58.75
2023-08-07T08:46:44.222Z,59.03
2023-08-07T08:47:38.059Z,58.99
2023-08-07T08:48:32.562Z,58.44
2023-08-07T08:49:32.168Z,59.10
2023-08-07T08:50:23.289Z,59.15
2023-08-07T08:51:14.918Z,59.12
2023-08-07T08:52:06.502Z,58.06
2023-08-07T08:52:57.857Z,58.79
2023-08-07T08:53:50.322Z,58.02
2023-08-07T08:54:41.938Z,57.90
2023-08-07T08:55:33.305Z,55.95
2023-08-07T08:56:24.647Z,55.66
2023-08-07T08:57:15.321Z,55.22
2023-08-07T08:58:07.605Z,55.46
2023-08-07T08:58:58.704Z,55.13
2023-08-07T08:59:50.209Z,54.66
2023-08-07T09:00:42.356Z,54.17
2023-08-07T09:01:33.952Z,54.87
2023-08-07T09:02:26.158Z,55.03
2023-08-07T09:03:19.662Z,55.08
2023-08-07T09:04:11.210Z,57.38
2023-08-07T09:05:02.016Z,56.61
2023-08-07T09:05:57.481Z,57.96
2023-08-07T09:06:48.783Z,57.85
2023-08-07T09:07:39.792Z,58.16
2023-08-07T09:08:31.394Z,58.28
2023-08-07T09:09:23.641Z,57.68
2023-08-07T09:10:15.743Z,57.26
2023-08-07T09:11:06.375Z,57.64
2023-08-07T09:11:59.853Z,57.57
2023-08-07T09:12:58.378Z,58.23
2023-08-07T09:13:50.132Z,57.94
2023-08-07T09:14:42.622Z,57.93
2023-08-07T09:15:35.212Z,58.28
2023-08-07T09:16:27.640Z,57.90
2023-08-07T09:17:19.225Z,58.22
2023-08-07T09:18:12.690Z,57.58
2023-08-07T09:19:05.541Z,57.43
2023-08-07T09:19:57.040Z,58.32
2023-08-07T09:20:48.243Z,58.13
2023-08-07T09:21:39.232Z,58.61
2023-08-07T09:22:30.069Z,58.62
2023-08-07T09:23:22.334Z,58.70
2023-08-07T09:24:13.496Z,58.86
2023-08-07T09:25:04.787Z,58.61
2023-08-07T09:26:05.990Z,58.73
2023-08-07T09:26:57.217Z,58.27
2023-08-07T09:27:48.337Z,57.82
2023-08-07T09:28:39.590Z,58.32
2023-08-07T09:29:30.582Z,58.34
2023-08-07T09:30:21.857Z,57.96
2023-08-07T09:31:17.652Z,58.58
2023-08-07T09:32:13.828Z,58.44
2023-08-07T09:33:05.607Z,59.81
2023-08-07T09:33:56.212Z,59.63
2023-08-07T09:34:46.614Z,59.72
2023-08-07T09:35:37.308Z,60.25
2023-08-07T09:36:31.531Z,60.45
2023-08-07T09:37:22.136Z,59.74
2023-08-07T09:38:15.160Z,59.34
2023-08-07T09:39:05.819Z,60.68
2023-08-07T09:39:56.965Z,60.22
2023-08-07T09:40:47.524Z,60.31
2023-08-07T09:41:38.439Z,60.11
2023-08-07T09:42:32.987Z,59.74
2023-08-07T09:43:24.126Z,59.38
2023-08-07T09:44:14.806Z,60.14
2023-08-07T09:45:20.690Z,59.46
2023-08-07T09:46:11.698Z,60.00
2023-08-07T09:47:15.520Z,59.75
2023-08-07T09:48:12.424Z,59.17
2023-08-07T09:49:03.358Z,58.78
2023-08-07T09:49:56.076Z,59.17
2023-08-07T09:50:47.164Z,59.30
2023-08-07T09:51:48.717Z,60.09
2023-08-07T09:52:41.239Z,59.99
2023-08-07T09:53:32.782Z,59.69
2023-08-07T09:54:23.842Z,59.86
2023-08-07T09:55:16.800Z,59.19
2023-08-07T09:56:07.740Z,60.01
2023-08-07T09:57:00.154Z,60.08
2023-08-07T09:57:52.034Z,59.25
2023-08-07T09:58:48.236Z,59.45
2023-08-07T09:59:39.406Z,59.31
2023-08-07T10:00:35.831Z,58.11
2023-08-07T10:01:26.878Z,57.10
2023-08-07T10:02:18.070Z,58.20
2023-08-07T10:03:09.894Z,57.65
2023-08-07T10:04:04.112Z,57.73
2023-08-07T10:04:55.261Z,58.31
2023-08-07T10:05:49.289Z,56.91
2023-08-07T10:06:40.314Z,57.67
2023-08-07T10:07:31.335Z,55.98
2023-08-07T10:08:22.839Z,56.21
2023-08-07T10:09:13.452Z,56.38
2023-08-07T10:10:05.046Z,56.37
2023-08-07T10:10:55.595Z,56.70
2023-08-07T10:11:46.895Z,56.59
2023-08-07T10:12:42.243Z,56.33
2023-08-07T10:13:39.017Z,56.20
2023-08-07T10:14:31.389Z,56.67
2023-08-07T10:15:22.385Z,56.47
2023-08-07T10:16:14.558Z,55.71
2023-08-07T10:17:06.450Z,56.12
2023-08-07T10:17:57.889Z,56.87
2023-08-07T10:18:49.123Z,57.65
2023-08-07T10:19:40.261Z,58.40
2023-08-07T10:20:31.601Z,58.97
2023-08-07T10:21:24.389Z,58.72
2023-08-07T10:22:17.420Z,58.17
2023-08-07T10:23:09.825Z,58.76
2023-08-07T10:24:03.589Z,58.31
2023-08-07T10:24:55.327Z,59.21
2023-08-07T10:25:48.769Z,62.50
2023-08-07T10:26:44.181Z,62.99
2023-08-07T10:27:39.332Z,62.92
2023-08-07T10:28:31.995Z,64.50
2023-08-07T10:29:25.127Z,65.16
2023-08-07T10:30:19.710Z,65.71
2023-08-07T10:31:12.042Z,66.03
2023-08-07T10:32:03.778Z,67.11
2023-08-07T10:32:55.944Z,66.84
2023-08-07T10:33:46.698Z,66.99
2023-08-07T10:34:40.273Z,67.48
2023-08-07T10:35:32.427Z,66.61
2023-08-07T10:36:23.028Z,66.54
2023-08-07T10:37:42.919Z,67.88
2023-08-07T10:38:33.786Z,67.34
2023-08-07T10:39:24.725Z,68.75
2023-08-07T10:40:15.699Z,66.06
2023-08-07T10:41:10.928Z,66.43
2023-08-07T10:42:02.535Z,66.08
2023-08-07T10:43:01.305Z,66.50
2023-08-07T10:43:52.143Z,65.20
2023-08-07T10:44:51.102Z,65.67
2023-08-07T10:45:41.997Z,64.70
2023-08-07T10:46:50.799Z,64.61
2023-08-07T10:47:41.906Z,62.78
2023-08-07T10:48:47.705Z,63.18
2023-08-07T10:49:42.122Z,60.99
2023-08-07T10:50:33.985Z,61.19
2023-08-07T10:51:31.917Z,62.44
2023-08-07T10:52:26.273Z,60.52
2023-08-07T10:53:48.515Z,61.15
2023-08-07T10:54:44.031Z,61.71
2023-08-07T10:55:46.565Z,61.57
2023-08-07T10:56:45.025Z,62.90
2023-08-07T10:57:41.708Z,62.21
2023-08-07T10:58:34.409Z,62.84
2023-08-07T10:59:24.983Z,63.38
2023-08-07T11:00:16.053Z,64.05
2023-08-07T11:01:31.667Z,64.14
2023-08-07T11:02:27.121Z,66.29
2023-08-07T11:03:27.403Z,66.90
2023-08-07T11:04:19.158Z,65.92
2023-08-07T11:05:10.084Z,66.07
2023-08-07T11:06:00.958Z,65.78
2023-08-07T11:06:52.071Z,63.77
2023-08-07T11:07:42.964Z,64.88
2023-08-07T11:08:34.186Z,64.97
2023-08-07T11:09:25.196Z,65.06
2023-08-07T11:10:19.086Z,63.91